sensor_id;sensor_type;location;lat;lon;timestamp;pressure;altitude;pressure_sealevel;temperature;humidity
17785;BME280;9016;53.582;10.062;2022-09-17T00:01:22;100327.00;;;14.81;93.24
17785;BME280;9016;53.582;10.062;2022-09-17T00:03:53;100326.63;;;14.86;93.53
17785;BME280;9016;53.582;10.062;2022-09-17T00:06:22;100328.72;;;14.82;92.23
17785;BME280;9016;53.582;10.062;2022-09-17T00:08:52;100330.47;;;14.72;92.17
17785;BME280;9016;53.582;10.062;2022-09-17T00:11:21;100329.16;;;14.67;91.63
17785;BME280;9016;53.582;10.062;2022-09-17T00:13:51;100336.34;;;14.66;92.43
17785;BME280;9016;53.582;10.062;2022-09-17T00:16:26;100332.97;;;14.64;92.55
17785;BME280;9016;53.582;10.062;2022-09-17T00:18:54;100333.19;;;14.61;93.31
17785;BME280;9016;53.582;10.062;2022-09-17T00:21:23;100330.78;;;14.58;93.29
17785;BME280;9016;53.582;10.062;2022-09-17T00:23:53;100334.19;;;14.60;94.11
17785;BME280;9016;53.582;10.062;2022-09-17T00:26:22;100336.34;;;14.66;93.77
17785;BME280;9016;53.582;10.062;2022-09-17T00:28:51;100336.81;;;14.71;93.60
17785;BME280;9016;53.582;10.062;2022-09-17T00:31:20;100342.91;;;14.73;93.15
17785;BME280;9016;53.582;10.062;2022-09-17T00:33:50;100346.44;;;14.74;92.68
17785;BME280;9016;53.582;10.062;2022-09-17T00:36:19;100346.06;;;14.78;92.60
17785;BME280;9016;53.582;10.062;2022-09-17T00:38:48;100349.13;;;14.74;91.88
17785;BME280;9016;53.582;10.062;2022-09-17T00:41:19;100343.88;;;14.72;92.12
17785;BME280;9016;53.582;10.062;2022-09-17T00:43:50;100346.09;;;14.67;92.62
17785;BME280;9016;53.582;10.062;2022-09-17T00:46:24;100349.25;;;14.72;91.84
17785;BME280;9016;53.582;10.062;2022-09-17T00:48:54;100349.38;;;14.71;92.09
17785;BME280;9016;53.582;10.062;2022-09-17T00:51:26;100347.41;;;14.73;91.95
17785;BME280;9016;53.582;10.062;2022-09-17T00:53:55;100348.91;;;14.66;91.28
17785;BME280;9016;53.582;10.062;2022-09-17T00:56:25;100346.28;;;14.55;91.82
17785;BME280;9016;53.582;10.062;2022-09-17T00:58:54;100351.03;;;14.51;92.41
17785;BME280;9016;53.582;10.062;2022-09-17T01:01:22;100353.13;;;14.48;92.36
17785;BME280;9016;53.582;10.062;2022-09-17T01:03:50;100355.19;;;14.44;92.18
17785;BME280;9016;53.582;10.062;2022-09-17T01:06:25;100351.81;;;14.42;92.35
17785;BME280;9016;53.582;10.062;2022-09-17T01:09:08;100363.13;;;14.46;92.34
17785;BME280;9016;53.582;10.062;2022-09-17T01:11:53;100352.13;;;14.49;92.68
17785;BME280;9016;53.582;10.062;2022-09-17T01:14:39;100358.84;;;14.43;91.77
17785;BME280;9016;53.582;10.062;2022-09-17T01:17:14;100355.56;;;14.40;92.19
17785;BME280;9016;53.582;10.062;2022-09-17T01:20:21;100361.31;;;14.35;92.74
17785;BME280;9016;53.582;10.062;2022-09-17T01:23:11;100362.44;;;14.33;92.71
17785;BME280;9016;53.582;10.062;2022-09-17T01:25:55;100364.50;;;14.29;92.61
17785;BME280;9016;53.582;10.062;2022-09-17T01:28:31;100369.13;;;14.27;93.36
17785;BME280;9016;53.582;10.062;2022-09-17T01:31:17;100358.50;;;14.26;93.70
17785;BME280;9016;53.582;10.062;2022-09-17T01:33:53;100368.16;;;14.28;93.91
17785;BME280;9016;53.582;10.062;2022-09-17T01:36:49;100366.47;;;14.27;93.15
17785;BME280;9016;53.582;10.062;2022-09-17T01:39:30;100368.00;;;14.30;93.45
17785;BME280;9016;53.582;10.062;2022-09-17T01:42:09;100365.94;;;14.33;94.05
17785;BME280;9016;53.582;10.062;2022-09-17T01:44:48;100362.88;;;14.38;93.15
17785;BME280;9016;53.582;10.062;2022-09-17T01:47:22;100372.41;;;14.31;92.61
17785;BME280;9016;53.582;10.062;2022-09-17T01:49:52;100361.94;;;14.28;92.34
17785;BME280;9016;53.582;10.062;2022-09-17T01:52:23;100369.75;;;14.31;92.65
17785;BME280;9016;53.582;10.062;2022-09-17T01:54:55;100376.44;;;14.36;92.15
17785;BME280;9016;53.582;10.062;2022-09-17T01:57:27;100379.22;;;14.46;91.71
17785;BME280;9016;53.582;10.062;2022-09-17T02:00:02;100375.19;;;14.51;91.71
17785;BME280;9016;53.582;10.062;2022-09-17T02:02:35;100379.19;;;14.57;90.31
17785;BME280;9016;53.582;10.062;2022-09-17T02:05:07;100375.03;;;14.53;89.91
17785;BME280;9016;53.582;10.062;2022-09-17T02:07:40;100369.91;;;14.50;90.30
17785;BME280;9016;53.582;10.062;2022-09-17T02:10:12;100384.44;;;14.47;90.30
17785;BME280;9016;53.582;10.062;2022-09-17T02:12:45;100381.88;;;14.46;90.30
17785;BME280;9016;53.582;10.062;2022-09-17T02:15:20;100375.81;;;14.44;90.33
17785;BME280;9016;53.582;10.062;2022-09-17T02:17:53;100378.38;;;14.34;89.72
17785;BME280;9016;53.582;10.062;2022-09-17T02:20:26;100382.41;;;14.29;90.31
17785;BME280;9016;53.582;10.062;2022-09-17T02:23:00;100384.94;;;14.19;91.28
17785;BME280;9016;53.582;10.062;2022-09-17T02:25:35;100383.72;;;14.23;91.76
17785;BME280;9016;53.582;10.062;2022-09-17T02:28:10;100385.94;;;14.29;91.80
17785;BME280;9016;53.582;10.062;2022-09-17T02:30:40;100384.47;;;14.36;91.50
17785;BME280;9016;53.582;10.062;2022-09-17T02:33:12;100401.50;;;14.35;91.45
17785;BME280;9016;53.582;10.062;2022-09-17T02:35:42;100392.50;;;14.36;91.47
17785;BME280;9016;53.582;10.062;2022-09-17T02:38:12;100390.56;;;14.38;91.58
17785;BME280;9016;53.582;10.062;2022-09-17T02:40:45;100392.50;;;14.36;91.17
17785;BME280;9016;53.582;10.062;2022-09-17T02:43:21;100392.00;;;14.42;91.80
17785;BME280;9016;53.582;10.062;2022-09-17T02:46:01;100391.03;;;14.43;91.79
17785;BME280;9016;53.582;10.062;2022-09-17T02:48:55;100387.34;;;14.44;92.30
17785;BME280;9016;53.582;10.062;2022-09-17T02:51:35;100381.91;;;14.35;91.75
17785;BME280;9016;53.582;10.062;2022-09-17T02:54:16;100385.31;;;14.37;92.11
17785;BME280;9016;53.582;10.062;2022-09-17T02:56:50;100388.97;;;14.36;92.56
17785;BME280;9016;53.582;10.062;2022-09-17T02:59:27;100377.78;;;14.31;92.52
17785;BME280;9016;53.582;10.062;2022-09-17T03:01:59;100382.72;;;14.24;92.40
17785;BME280;9016;53.582;10.062;2022-09-17T03:04:31;100381.03;;;14.23;93.78
17785;BME280;9016;53.582;10.062;2022-09-17T03:07:04;100387.63;;;14.19;93.74
17785;BME280;9016;53.582;10.062;2022-09-17T03:09:34;100387.34;;;14.22;94.12
17785;BME280;9016;53.582;10.062;2022-09-17T03:12:03;100381.03;;;14.23;92.89
17785;BME280;9016;53.582;10.062;2022-09-17T03:14:31;100382.72;;;14.24;93.85
17785;BME280;9016;53.582;10.062;2022-09-17T03:16:59;100384.69;;;14.22;93.21
17785;BME280;9016;53.582;10.062;2022-09-17T03:19:27;100380.69;;;14.06;93.21
17785;BME280;9016;53.582;10.062;2022-09-17T03:21:56;100377.03;;;14.07;93.95
17785;BME280;9016;53.582;10.062;2022-09-17T03:24:24;100376.44;;;14.14;94.08
17785;BME280;9016;53.582;10.062;2022-09-17T03:26:52;100379.72;;;14.18;93.51
17785;BME280;9016;53.582;10.062;2022-09-17T03:29:20;100384.47;;;14.14;93.75
17785;BME280;9016;53.582;10.062;2022-09-17T03:31:48;100381.31;;;14.09;94.21
17785;BME280;9016;53.582;10.062;2022-09-17T03:34:16;100383.72;;;14.12;93.21
17785;BME280;9016;53.582;10.062;2022-09-17T03:36:45;100391.78;;;14.12;94.10
17785;BME280;9016;53.582;10.062;2022-09-17T03:39:14;100388.34;;;14.21;93.76
17785;BME280;9016;53.582;10.062;2022-09-17T03:41:42;100380.94;;;14.14;93.11
17785;BME280;9016;53.582;10.062;2022-09-17T03:44:10;100391.66;;;14.14;93.52
17785;BME280;9016;53.582;10.062;2022-09-17T03:46:38;100398.59;;;14.16;93.78
17785;BME280;9016;53.582;10.062;2022-09-17T03:49:06;100400.06;;;14.09;93.22
17785;BME280;9016;53.582;10.062;2022-09-17T03:51:34;100400.69;;;14.13;94.17
17785;BME280;9016;53.582;10.062;2022-09-17T03:54:02;100394.78;;;14.19;93.99
17785;BME280;9016;53.582;10.062;2022-09-17T03:56:32;100394.06;;;14.17;93.42
17785;BME280;9016;53.582;10.062;2022-09-17T03:59:00;100396.75;;;14.17;93.42
17785;BME280;9016;53.582;10.062;2022-09-17T04:01:28;100399.56;;;14.15;93.29
17785;BME280;9016;53.582;10.062;2022-09-17T04:03:56;100403.84;;;14.07;93.79
17785;BME280;9016;53.582;10.062;2022-09-17T04:06:24;100412.00;;;14.05;93.52
17785;BME280;9016;53.582;10.062;2022-09-17T04:08:52;100405.78;;;14.05;93.98
17785;BME280;9016;53.582;10.062;2022-09-17T04:11:21;100404.44;;;13.99;94.48
17785;BME280;9016;53.582;10.062;2022-09-17T04:13:50;100410.41;;;13.91;94.67
17785;BME280;9016;53.582;10.062;2022-09-17T04:16:18;100405.66;;;13.95;94.45
17785;BME280;9016;53.582;10.062;2022-09-17T04:18:46;100399.94;;;14.00;94.00
17785;BME280;9016;53.582;10.062;2022-09-17T04:21:14;100409.81;;;13.99;93.00
17785;BME280;9016;53.582;10.062;2022-09-17T04:23:42;100410.06;;;13.85;92.49
17785;BME280;9016;53.582;10.062;2022-09-17T04:26:10;100413.94;;;13.81;92.70
17785;BME280;9016;53.582;10.062;2022-09-17T04:28:38;100408.94;;;13.76;93.11
17785;BME280;9016;53.582;10.062;2022-09-17T04:31:07;100412.19;;;13.69;93.13
17785;BME280;9016;53.582;10.062;2022-09-17T04:33:35;100419.78;;;13.75;94.21
17785;BME280;9016;53.582;10.062;2022-09-17T04:36:03;100415.88;;;13.79;94.17
17785;BME280;9016;53.582;10.062;2022-09-17T04:38:31;100424.41;;;13.84;94.01
17785;BME280;9016;53.582;10.062;2022-09-17T04:41:00;100430.50;;;13.86;93.84
17785;BME280;9016;53.582;10.062;2022-09-17T04:43:28;100431.81;;;13.80;93.72
17785;BME280;9016;53.582;10.062;2022-09-17T04:45:56;100447.28;;;13.77;93.69
17785;BME280;9016;53.582;10.062;2022-09-17T04:48:25;100444.34;;;13.80;94.90
17785;BME280;9016;53.582;10.062;2022-09-17T04:50:53;100438.16;;;13.79;95.66
17785;BME280;9016;53.582;10.062;2022-09-17T04:53:21;100439.38;;;13.75;96.19
17785;BME280;9016;53.582;10.062;2022-09-17T04:55:49;100428.66;;;13.75;95.73
17785;BME280;9016;53.582;10.062;2022-09-17T04:58:17;100437.44;;;13.77;96.28
17785;BME280;9016;53.582;10.062;2022-09-17T05:00:45;100435.25;;;13.82;95.78
17785;BME280;9016;53.582;10.062;2022-09-17T05:03:13;100433.63;;;13.80;95.70
17785;BME280;9016;53.582;10.062;2022-09-17T05:05:42;100435.97;;;13.84;95.16
17785;BME280;9016;53.582;10.062;2022-09-17T05:08:10;100435.59;;;13.78;95.33
17785;BME280;9016;53.582;10.062;2022-09-17T05:10:38;100436.56;;;13.77;94.28
17785;BME280;9016;53.582;10.062;2022-09-17T05:13:06;100438.25;;;13.78;94.42
17785;BME280;9016;53.582;10.062;2022-09-17T05:15:34;100441.94;;;13.77;93.66
17785;BME280;9016;53.582;10.062;2022-09-17T05:18:02;100444.72;;;13.75;94.18
17785;BME280;9016;53.582;10.062;2022-09-17T05:20:30;100437.31;;;13.79;93.56
17785;BME280;9016;53.582;10.062;2022-09-17T05:22:59;100446.53;;;13.75;93.57
17785;BME280;9016;53.582;10.062;2022-09-17T05:25:27;100438.25;;;13.78;94.21
17785;BME280;9016;53.582;10.062;2022-09-17T05:27:56;100443.41;;;13.81;94.30
17785;BME280;9016;53.582;10.062;2022-09-17T05:30:26;100453.84;;;13.84;94.25
17785;BME280;9016;53.582;10.062;2022-09-17T05:33:00;100451.56;;;13.90;93.99
17785;BME280;9016;53.582;10.062;2022-09-17T05:35:29;100450.22;;;13.85;93.73
17785;BME280;9016;53.582;10.062;2022-09-17T05:38:00;100445.81;;;13.84;93.37
17785;BME280;9016;53.582;10.062;2022-09-17T05:40:29;100460.41;;;13.80;93.76
17785;BME280;9016;53.582;10.062;2022-09-17T05:42:58;100447.75;;;13.82;93.48
17785;BME280;9016;53.582;10.062;2022-09-17T05:45:27;100448.75;;;13.92;93.88
17785;BME280;9016;53.582;10.062;2022-09-17T05:47:56;100453.41;;;14.01;93.55
17785;BME280;9016;53.582;10.062;2022-09-17T05:50:25;100456.56;;;14.06;93.05
17785;BME280;9016;53.582;10.062;2022-09-17T05:52:53;100466.31;;;14.07;93.07
17785;BME280;9016;53.582;10.062;2022-09-17T05:55:23;100465.31;;;14.08;93.35
17785;BME280;9016;53.582;10.062;2022-09-17T05:57:53;100463.03;;;14.04;94.18
17785;BME280;9016;53.582;10.062;2022-09-17T06:00:21;100459.63;;;14.13;94.26
17785;BME280;9016;53.582;10.062;2022-09-17T06:02:53;100466.06;;;14.10;93.77
17785;BME280;9016;53.582;10.062;2022-09-17T06:05:21;100464.59;;;14.17;93.25
17785;BME280;9016;53.582;10.062;2022-09-17T06:07:50;100469.22;;;14.26;92.74
17785;BME280;9016;53.582;10.062;2022-09-17T06:10:18;100472.03;;;14.25;91.46
17785;BME280;9016;53.582;10.062;2022-09-17T06:12:47;100471.44;;;14.32;91.28
17785;BME280;9016;53.582;10.062;2022-09-17T06:15:15;100474.25;;;14.42;91.34
17785;BME280;9016;53.582;10.062;2022-09-17T06:17:43;100469.75;;;14.31;89.67
17785;BME280;9016;53.582;10.062;2022-09-17T06:20:11;100466.09;;;14.32;89.59
17785;BME280;9016;53.582;10.062;2022-09-17T06:22:39;100471.44;;;14.21;88.88
17785;BME280;9016;53.582;10.062;2022-09-17T06:25:07;100467.53;;;14.25;88.95
17785;BME280;9016;53.582;10.062;2022-09-17T06:27:35;100477.53;;;14.23;89.14
17785;BME280;9016;53.582;10.062;2022-09-17T06:30:05;100476.22;;;14.29;88.13
17785;BME280;9016;53.582;10.062;2022-09-17T06:32:34;100482.44;;;14.29;87.72
17785;BME280;9016;53.582;10.062;2022-09-17T06:35:02;100477.53;;;14.23;88.56
17785;BME280;9016;53.582;10.062;2022-09-17T06:37:31;100479.13;;;14.26;87.63
17785;BME280;9016;53.582;10.062;2022-09-17T06:39:59;100486.28;;;14.25;86.71
17785;BME280;9016;53.582;10.062;2022-09-17T06:42:27;100492.59;;;14.13;86.35
17785;BME280;9016;53.582;10.062;2022-09-17T06:44:55;100495.53;;;13.99;86.50
17785;BME280;9016;53.582;10.062;2022-09-17T06:47:28;100498.44;;;13.96;86.66
17785;BME280;9016;53.582;10.062;2022-09-17T06:49:56;100499.69;;;14.03;86.19
17785;BME280;9016;53.582;10.062;2022-09-17T06:52:25;100504.56;;;13.98;86.54
17785;BME280;9016;53.582;10.062;2022-09-17T06:54:53;100494.66;;;13.99;86.77
17785;BME280;9016;53.582;10.062;2022-09-17T06:57:22;100496.59;;;13.97;86.16
17785;BME280;9016;53.582;10.062;2022-09-17T06:59:50;100492.84;;;13.99;86.24
17785;BME280;9016;53.582;10.062;2022-09-17T07:02:17;100492.72;;;14.01;85.70
17785;BME280;9016;53.582;10.062;2022-09-17T07:04:47;100492.09;;;13.97;85.57
17785;BME280;9016;53.582;10.062;2022-09-17T07:07:15;100497.00;;;14.03;85.67
17785;BME280;9016;53.582;10.062;2022-09-17T07:09:43;100480.81;;;14.16;85.80
17785;BME280;9016;53.582;10.062;2022-09-17T07:12:11;100494.56;;;14.22;84.28
17785;BME280;9016;53.582;10.062;2022-09-17T07:14:39;100489.94;;;14.24;82.99
17785;BME280;9016;53.582;10.062;2022-09-17T07:17:07;100493.59;;;14.23;82.33
17785;BME280;9016;53.582;10.062;2022-09-17T07:19:35;100491.25;;;14.19;82.39
17785;BME280;9016;53.582;10.062;2022-09-17T07:22:05;100493.97;;;14.30;81.67
17785;BME280;9016;53.582;10.062;2022-09-17T07:24:34;100496.91;;;14.38;80.01
17785;BME280;9016;53.582;10.062;2022-09-17T07:27:02;100494.66;;;14.87;78.12
17785;BME280;9016;53.582;10.062;2022-09-17T07:29:29;100494.28;;;15.66;75.18
17785;BME280;9016;53.582;10.062;2022-09-17T07:31:57;100496.78;;;16.09;73.47
17785;BME280;9016;53.582;10.062;2022-09-17T07:34:26;100488.56;;;17.39;68.15
17785;BME280;9016;53.582;10.062;2022-09-17T07:36:54;100498.50;;;18.32;64.55
17785;BME280;9016;53.582;10.062;2022-09-17T07:39:23;100499.06;;;18.36;63.93
17785;BME280;9016;53.582;10.062;2022-09-17T07:41:51;100492.19;;;18.05;64.36
17785;BME280;9016;53.582;10.062;2022-09-17T07:44:19;100499.09;;;17.51;63.89
17785;BME280;9016;53.582;10.062;2022-09-17T07:46:48;100512.38;;;17.24;65.80
17785;BME280;9016;53.582;10.062;2022-09-17T07:49:16;100506.22;;;16.94;66.73
17785;BME280;9016;53.582;10.062;2022-09-17T07:51:44;100491.78;;;17.14;65.26
17785;BME280;9016;53.582;10.062;2022-09-17T07:54:12;100485.31;;;19.38;61.64
17785;BME280;9016;53.582;10.062;2022-09-17T07:56:41;100489.06;;;20.99;54.61
17785;BME280;9016;53.582;10.062;2022-09-17T07:59:10;100489.19;;;22.03;51.50
17785;BME280;9016;53.582;10.062;2022-09-17T08:01:38;100485.81;;;22.72;49.33
17785;BME280;9016;53.582;10.062;2022-09-17T08:04:06;100482.94;;;23.57;45.03
17785;BME280;9016;53.582;10.062;2022-09-17T08:06:35;100479.56;;;24.15;44.33
17785;BME280;9016;53.582;10.062;2022-09-17T08:09:04;100476.84;;;24.30;43.38
17785;BME280;9016;53.582;10.062;2022-09-17T08:11:32;100471.47;;;24.95;41.25
17785;BME280;9016;53.582;10.062;2022-09-17T08:14:22;100469.84;;;25.36;41.69
17785;BME280;9016;53.582;10.062;2022-09-17T08:16:55;100471.22;;;25.68;40.87
17785;BME280;9016;53.582;10.062;2022-09-17T08:19:23;100470.09;;;25.56;40.88
17785;BME280;9016;53.582;10.062;2022-09-17T08:21:51;100470.78;;;25.64;38.44
17785;BME280;9016;53.582;10.062;2022-09-17T08:24:19;100463.47;;;25.92;38.82
17785;BME280;9016;53.582;10.062;2022-09-17T08:26:47;100454.25;;;25.93;38.77
17785;BME280;9016;53.582;10.062;2022-09-17T08:29:15;100463.69;;;26.53;36.87
17785;BME280;9016;53.582;10.062;2022-09-17T08:31:44;100466.75;;;27.24;36.38
17785;BME280;9016;53.582;10.062;2022-09-17T08:34:13;100462.53;;;27.15;35.67
17785;BME280;9016;53.582;10.062;2022-09-17T08:36:41;100461.41;;;26.90;35.07
17785;BME280;9016;53.582;10.062;2022-09-17T08:39:09;100466.06;;;27.03;35.75
17785;BME280;9016;53.582;10.062;2022-09-17T08:41:48;100468.53;;;27.38;34.10
17785;BME280;9016;53.582;10.062;2022-09-17T08:44:24;100466.22;;;26.88;35.88
17785;BME280;9016;53.582;10.062;2022-09-17T08:46:58;100460.34;;;26.85;35.38
17785;BME280;9016;53.582;10.062;2022-09-17T08:49:31;100463.59;;;26.33;36.04
17785;BME280;9016;53.582;10.062;2022-09-17T08:52:42;100472.59;;;23.30;40.46
17785;BME280;9016;53.582;10.062;2022-09-17T08:55:18;100463.28;;;22.47;44.42
17785;BME280;9016;53.582;10.062;2022-09-17T08:57:53;100463.38;;;23.09;43.32
17785;BME280;9016;53.582;10.062;2022-09-17T09:00:24;100459.94;;;23.83;42.54
17785;BME280;9016;53.582;10.062;2022-09-17T09:03:06;100457.47;;;22.67;42.81
17785;BME280;9016;53.582;10.062;2022-09-17T09:05:41;100454.44;;;21.42;44.22
17785;BME280;9016;53.582;10.062;2022-09-17T09:08:13;100467.66;;;20.46;47.37
17785;BME280;9016;53.582;10.062;2022-09-17T09:10:45;100457.38;;;20.91;47.88
17785;BME280;9016;53.582;10.062;2022-09-17T09:13:18;100441.00;;;21.09;47.05
17785;BME280;9016;53.582;10.062;2022-09-17T09:15:52;100441.03;;;21.25;46.77
17785;BME280;9016;53.582;10.062;2022-09-17T09:18:25;100452.56;;;20.69;47.33
17785;BME280;9016;53.582;10.062;2022-09-17T09:21:00;100453.91;;;20.31;48.47
17785;BME280;9016;53.582;10.062;2022-09-17T09:23:40;100459.97;;;19.56;49.52
17785;BME280;9016;53.582;10.062;2022-09-17T09:26:15;100461.53;;;18.97;49.95
17785;BME280;9016;53.582;10.062;2022-09-17T09:29:00;100474.22;;;18.96;48.71
17785;BME280;9016;53.582;10.062;2022-09-17T09:31:47;100473.13;;;18.62;49.26
17785;BME280;9016;53.582;10.062;2022-09-17T09:34:19;100468.75;;;18.61;49.44
17785;BME280;9016;53.582;10.062;2022-09-17T09:36:50;100465.06;;;18.52;50.46
17785;BME280;9016;53.582;10.062;2022-09-17T09:39:21;100464.22;;;19.24;49.35
17785;BME280;9016;53.582;10.062;2022-09-17T09:41:54;100462.13;;;19.18;49.31
17785;BME280;9016;53.582;10.062;2022-09-17T09:44:26;100467.75;;;18.79;50.04
17785;BME280;9016;53.582;10.062;2022-09-17T09:47:08;100469.19;;;19.01;48.94
17785;BME280;9016;53.582;10.062;2022-09-17T09:49:56;100465.53;;;18.93;48.82
17785;BME280;9016;53.582;10.062;2022-09-17T09:52:41;100464.88;;;19.26;48.54
17785;BME280;9016;53.582;10.062;2022-09-17T09:55:22;100469.53;;;19.33;48.44
17785;BME280;9016;53.582;10.062;2022-09-17T09:58:02;100454.94;;;19.26;47.91
17785;BME280;9016;53.582;10.062;2022-09-17T10:00:35;100479.88;;;18.75;48.07
17785;BME280;9016;53.582;10.062;2022-09-17T10:03:10;100466.44;;;17.83;49.89
17785;BME280;9016;53.582;10.062;2022-09-17T10:05:51;100475.88;;;17.97;50.94
17785;BME280;9016;53.582;10.062;2022-09-17T10:08:19;100489.63;;;18.22;50.10
17785;BME280;9016;53.582;10.062;2022-09-17T10:10:56;100477.38;;;18.64;50.74
17785;BME280;9016;53.582;10.062;2022-09-17T10:13:25;100479.47;;;18.43;50.66
17785;BME280;9016;53.582;10.062;2022-09-17T10:15:54;100483.63;;;18.19;50.91
17785;BME280;9016;53.582;10.062;2022-09-17T10:18:23;100474.91;;;17.98;52.11
17785;BME280;9016;53.582;10.062;2022-09-17T10:20:55;100472.94;;;17.80;53.01
17785;BME280;9016;53.582;10.062;2022-09-17T10:23:25;100462.78;;;17.55;53.64
17785;BME280;9016;53.582;10.062;2022-09-17T10:25:54;100465.19;;;17.58;54.07
17785;BME280;9016;53.582;10.062;2022-09-17T10:28:38;100455.53;;;17.65;54.47
17785;BME280;9016;53.582;10.062;2022-09-17T10:31:09;100453.38;;;17.78;54.30
17785;BME280;9016;53.582;10.062;2022-09-17T10:33:49;100453.28;;;17.70;54.70
17785;BME280;9016;53.582;10.062;2022-09-17T10:36:39;100462.63;;;17.66;55.64
17785;BME280;9016;53.582;10.062;2022-09-17T10:39:29;100454.97;;;17.62;55.73
17785;BME280;9016;53.582;10.062;2022-09-17T10:41:59;100455.81;;;17.15;56.76
17785;BME280;9016;53.582;10.062;2022-09-17T10:44:29;100457.34;;;16.89;58.25
17785;BME280;9016;53.582;10.062;2022-09-17T10:47:04;100458.91;;;16.91;58.41
17785;BME280;9016;53.582;10.062;2022-09-17T10:49:37;100457.25;;;17.19;58.16
17785;BME280;9016;53.582;10.062;2022-09-17T10:52:18;100451.56;;;17.22;57.62
17785;BME280;9016;53.582;10.062;2022-09-17T10:55:04;100447.75;;;17.34;57.63
17785;BME280;9016;53.582;10.062;2022-09-17T10:57:51;100441.63;;;17.13;58.04
17785;BME280;9016;53.582;10.062;2022-09-17T11:00:23;100438.53;;;16.98;58.59
17785;BME280;9016;53.582;10.062;2022-09-17T11:03:26;100435.78;;;16.79;58.04
17785;BME280;9016;53.582;10.062;2022-09-17T11:06:33;100431.69;;;16.84;58.83
17785;BME280;9016;53.582;10.062;2022-09-17T11:09:13;100438.19;;;16.72;59.25
17785;BME280;9016;53.582;10.062;2022-09-17T11:11:54;100428.31;;;17.02;60.03
17785;BME280;9016;53.582;10.062;2022-09-17T11:14:40;100432.03;;;17.48;58.83
17785;BME280;9016;53.582;10.062;2022-09-17T11:17:26;100427.03;;;17.25;58.83
17785;BME280;9016;53.582;10.062;2022-09-17T11:20:00;100433.44;;;17.24;59.30
17785;BME280;9016;53.582;10.062;2022-09-17T11:22:37;100442.06;;;17.18;59.24
17785;BME280;9016;53.582;10.062;2022-09-17T11:25:27;100429.28;;;17.01;60.48
17785;BME280;9016;53.582;10.062;2022-09-17T11:28:07;100436.41;;;17.11;59.33
17785;BME280;9016;53.582;10.062;2022-09-17T11:30:48;100430.03;;;17.22;59.66
17785;BME280;9016;53.582;10.062;2022-09-17T11:33:31;100429.16;;;17.40;59.85
17785;BME280;9016;53.582;10.062;2022-09-17T11:36:10;100434.00;;;17.56;58.63
17785;BME280;9016;53.582;10.062;2022-09-17T11:38:43;100426.34;;;17.61;57.93
17785;BME280;9016;53.582;10.062;2022-09-17T11:41:15;100424.50;;;17.52;57.48
17785;BME280;9016;53.582;10.062;2022-09-17T11:43:49;100429.34;;;17.48;57.51
17785;BME280;9016;53.582;10.062;2022-09-17T11:46:22;100424.34;;;17.72;56.73
17785;BME280;9016;53.582;10.062;2022-09-17T11:48:57;100419.72;;;17.92;56.57
17785;BME280;9016;53.582;10.062;2022-09-17T11:51:29;100430.56;;;17.73;57.30
17785;BME280;9016;53.582;10.062;2022-09-17T11:54:03;100434.69;;;17.67;57.71
17785;BME280;9016;53.582;10.062;2022-09-17T11:56:39;100438.81;;;17.52;57.37
17785;BME280;9016;53.582;10.062;2022-09-17T11:59:16;100436.13;;;17.52;58.10
17785;BME280;9016;53.582;10.062;2022-09-17T12:01:51;100425.75;;;17.29;59.13
17785;BME280;9016;53.582;10.062;2022-09-17T12:04:28;100430.88;;;17.32;59.88
17785;BME280;9016;53.582;10.062;2022-09-17T12:07:03;100429.31;;;17.10;60.22
17785;BME280;9016;53.582;10.062;2022-09-17T12:09:39;100425.50;;;17.22;60.92
17785;BME280;9016;53.582;10.062;2022-09-17T12:12:15;100425.22;;;17.54;60.03
17785;BME280;9016;53.582;10.062;2022-09-17T12:15:06;100422.34;;;17.27;60.97
17785;BME280;9016;53.582;10.062;2022-09-17T12:17:42;100418.41;;;17.59;60.24
17785;BME280;9016;53.582;10.062;2022-09-17T12:20:19;100414.13;;;17.76;58.78
17785;BME280;9016;53.582;10.062;2022-09-17T12:22:52;100402.09;;;17.32;60.49
17785;BME280;9016;53.582;10.062;2022-09-17T12:25:21;100406.50;;;17.43;61.04
17785;BME280;9016;53.582;10.062;2022-09-17T12:27:53;100399.53;;;17.40;61.74
17785;BME280;9016;53.582;10.062;2022-09-17T12:30:29;100394.31;;;17.20;61.45
17785;BME280;9016;53.582;10.062;2022-09-17T12:33:07;100386.38;;;17.28;61.65
17785;BME280;9016;53.582;10.062;2022-09-17T12:39:11;100394.88;;;17.23;61.04
17785;BME280;9016;53.582;10.062;2022-09-17T12:41:51;100387.91;;;17.30;60.60
17785;BME280;9016;53.582;10.062;2022-09-17T12:44:40;100388.63;;;17.32;60.85
17785;BME280;9016;53.582;10.062;2022-09-17T12:47:37;100379.56;;;17.43;61.37
17785;BME280;9016;53.582;10.062;2022-09-17T12:50:18;100393.13;;;17.70;60.47
17785;BME280;9016;53.582;10.062;2022-09-17T12:53:00;100386.19;;;17.58;61.54
17785;BME280;9016;53.582;10.062;2022-09-17T12:55:40;100389.31;;;17.44;61.91
17785;BME280;9016;53.582;10.062;2022-09-17T12:58:21;100389.88;;;17.38;62.40
17785;BME280;9016;53.582;10.062;2022-09-17T13:01:00;100388.91;;;17.39;61.97
17785;BME280;9016;53.582;10.062;2022-09-17T13:03:33;100385.34;;;17.38;61.66
17785;BME280;9016;53.582;10.062;2022-09-17T13:06:25;100380.00;;;17.48;62.16
17785;BME280;9016;53.582;10.062;2022-09-17T13:12:03;100369.94;;;17.87;61.57
17785;BME280;9016;53.582;10.062;2022-09-17T13:14:50;100366.75;;;18.01;61.21
17785;BME280;9016;53.582;10.062;2022-09-17T13:17:29;100361.31;;;18.10;60.41
17785;BME280;9016;53.582;10.062;2022-09-17T13:20:05;100366.59;;;18.02;60.86
17785;BME280;9016;53.582;10.062;2022-09-17T13:22:43;100362.34;;;18.09;61.41
17785;BME280;9016;53.582;10.062;2022-09-17T13:25:14;100372.69;;;18.04;61.47
17785;BME280;9016;53.582;10.062;2022-09-17T13:27:44;100368.19;;;17.58;63.32